Middleburg, Maryland
Current Conditions -  °F | °C
As of 3:55 AM on Friday 24 Oct 2014 (Local Time) from KFDK Reporting Station
Clear Clear  
Wind Chill: 57°   Ceiling: Unl
Heat Index: 57°   Visibility: 10mi
Dew Point: 41°   Wind: 6mph
Humidity: 55%   Direction: 330°NNW
Pressure: 29.97"   Gusts: NA
Location:  39.5985°N, 77.2609°W
Report Text: KFDK 240755Z AUTO 33005KT 10SM CLR 14/05 A2997 RMK AO2 LTG DSNT E
Loading
Personal Weather Stations






























Interactive Weather Map
Tropical Storm Tracking
New forecast layout! Learn more

10-Day Weather Forecast

Advertisements
Track Severe Weather on mobile